Time;durP1;ratioP1;P1;durP2;ratioP2;P2;SDS_P1;SDS_P2;PMS_P1;PMS_P2;Temp;Humidity;BMP_temperature;BMP_pressure;BME280_temperature;BME280_humidity;BME280_pressure;Samples;Min_cycle;Max_cycle;Signal;HPM_P1;HPM_P2
2024/01/25 00:00:05;;;;;;;11.03;9.37;;;;;;;2.81;76.10;93867.59;523978;28;792;-64
2024/01/25 00:00:21;;;;;;;12.10;9.25;;;;;;;2.85;76.28;93879.00;524010;28;851;-64
2024/01/25 00:00:36;;;;;;;14.07;9.63;;;;;;;2.89;76.03;93878.78;524048;28;847;-64
2024/01/25 00:00:51;;;;;;;12.03;9.23;;;;;;;2.92;76.23;93878.53;524069;28;769;-64
2024/01/25 00:01:07;;;;;;;11.70;9.63;;;;;;;2.94;75.89;93884.25;524056;28;784;-64
2024/01/25 00:01:23;;;;;;;13.27;10.17;;;;;;;2.97;75.83;93882.53;524094;28;784;-64
2024/01/25 00:01:39;;;;;;;15.45;10.20;;;;;;;2.97;75.68;93877.81;523939;28;1033;-64
2024/01/25 00:01:54;;;;;;;17.83;10.40;;;;;;;2.97;75.74;93886.00;523992;28;836;-64
2024/01/25 00:02:10;;;;;;;16.23;10.17;;;;;;;2.97;75.43;93882.53;524021;28;776;-64
2024/01/25 00:02:25;;;;;;;13.32;9.85;;;;;;;2.97;75.30;93886.00;524073;28;852;-64
2024/01/25 00:02:41;;;;;;;12.17;9.67;;;;;;;2.96;75.29;93889.22;524100;28;851;-63
2024/01/25 00:02:56;;;;;;;11.82;9.68;;;;;;;2.95;74.96;93888.47;524082;28;835;-64
2024/01/25 00:03:11;;;;;;;14.57;9.60;;;;;;;2.97;75.20;93887.97;523959;28;875;-64
2024/01/25 00:03:27;;;;;;;14.73;9.38;;;;;;;2.99;75.27;93885.50;524052;28;828;-64
2024/01/25 00:03:42;;;;;;;13.37;8.87;;;;;;;3.04;74.89;93887.50;524080;28;808;-64
2024/01/25 00:03:58;;;;;;;12.80;8.83;;;;;;;3.05;74.86;93884.28;525994;28;1183;-65
2024/01/25 00:04:13;;;;;;;11.48;9.40;;;;;;;3.11;75.26;93886.31;526093;28;855;-64
2024/01/25 00:04:29;;;;;;;13.07;10.27;;;;;;;3.12;74.73;93887.81;526104;28;776;-64
2024/01/25 00:04:44;;;;;;;12.30;9.55;;;;;;;3.11;74.32;93887.06;524813;28;1238;-64
2024/01/25 00:05:00;;;;;;;11.97;8.73;;;;;;;3.13;74.37;93887.31;524038;28;776;-63
2024/01/25 00:05:15;;;;;;;14.13;9.32;;;;;;;3.16;74.07;93891.81;523913;28;1017;-64
2024/01/25 00:05:31;;;;;;;13.43;9.40;;;;;;;3.19;73.91;93892.78;523966;28;1323;-64
2024/01/25 00:05:47;;;;;;;12.05;8.65;;;;;;;3.22;73.71;93898.03;523992;28;1555;-63
2024/01/25 00:06:04;;;;;;;13.43;8.95;;;;;;;3.26;73.24;93897.78;523997;28;862;-64
2024/01/25 00:06:20;;;;;;;12.80;9.48;;;;;;;3.29;73.45;93902.25;524033;28;1080;-64
2024/01/25 00:06:36;;;;;;;12.80;9.90;;;;;;;3.31;73.34;93902.50;524048;28;788;-64
2024/01/25 00:06:51;;;;;;;13.13;9.77;;;;;;;3.31;73.25;93907.97;524077;28;783;-64
2024/01/25 00:07:10;;;;;;;11.55;9.25;;;;;;;3.33;73.69;93902.78;524044;28;851;-64
2024/01/25 00:07:25;;;;;;;12.73;9.13;;;;;;;3.30;73.78;93903.75;524104;28;925;-64
2024/01/25 00:07:50;;;;;;;13.53;8.97;;;;;;;3.28;73.80;93896.06;524092;28;886;-64
2024/01/25 00:08:06;;;;;;;10.82;8.75;;;;;;;3.22;73.50;93897.25;524013;28;840;-64
2024/01/25 00:08:21;;;;;;;10.88;8.23;;;;;;;3.10;73.96;93888.28;524052;28;815;-64
2024/01/25 00:08:37;;;;;;;9.60;8.40;;;;;;;3.07;74.50;93881.81;523904;28;834;-64
2024/01/25 00:08:52;;;;;;;10.63;8.77;;;;;;;3.02;75.51;93888.00;524107;28;792;-64
2024/01/25 00:09:08;;;;;;;10.87;8.57;;;;;;;3.03;75.29;93878.56;524057;28;855;-64
2024/01/25 00:09:23;;;;;;;11.57;8.50;;;;;;;3.04;74.85;93871.91;524008;28;792;-64
2024/01/25 00:09:39;;;;;;;12.63;8.83;;;;;;;3.06;74.65;93863.22;524115;28;787;-63
2024/01/25 00:09:54;;;;;;;11.63;9.07;;;;;;;3.08;74.95;93856.03;524079;28;788;-64
2024/01/25 00:10:10;;;;;;;11.73;9.00;;;;;;;3.12;74.54;93855.06;523864;28;796;-64
2024/01/25 00:10:25;;;;;;;12.13;9.23;;;;;;;3.16;74.29;93855.56;524049;28;910;-63
2024/01/25 00:10:41;;;;;;;10.40;8.37;;;;;;;3.17;73.39;93857.81;524016;28;786;-64
2024/01/25 00:10:56;;;;;;;9.75;7.88;;;;;;;3.21;73.57;93863.03;524034;28;883;-64
2024/01/25 00:11:11;;;;;;;10.47;8.23;;;;;;;3.22;73.47;93867.25;524053;28;819;-64
2024/01/25 00:11:27;;;;;;;11.88;8.63;;;;;;;3.23;73.21;93874.22;523934;28;849;-64
2024/01/25 00:11:42;;;;;;;12.20;8.93;;;;;;;3.24;73.38;93870.22;524093;28;776;-64
2024/01/25 00:11:58;;;;;;;12.25;8.55;;;;;;;3.25;73.22;93879.94;524018;28;851;-64
2024/01/25 00:12:14;;;;;;;11.00;7.80;;;;;;;3.27;73.51;93885.63;523980;28;749;-64
2024/01/25 00:12:29;;;;;;;10.77;7.70;;;;;;;3.28;73.26;93882.41;524093;28;768;-64
2024/01/25 00:12:44;;;;;;;12.87;8.77;;;;;;;3.30;72.45;93877.19;524018;28;767;-64
2024/01/25 00:13:01;;;;;;;12.75;9.38;;;;;;;3.32;73.14;93880.19;523946;28;922;-64
2024/01/25 00:13:17;;;;;;;11.60;9.40;;;;;;;3.35;72.76;93873.75;524035;28;882;-64
2024/01/25 00:13:32;;;;;;;11.10;8.95;;;;;;;3.37;73.05;93878.72;524091;28;866;-64
2024/01/25 00:13:47;;;;;;;11.30;8.50;;;;;;;3.37;72.56;93875.97;524103;28;756;-64
2024/01/25 00:14:03;;;;;;;12.23;9.02;;;;;;;3.34;73.00;93885.88;524039;28;887;-64
2024/01/25 00:14:18;;;;;;;12.33;8.80;;;;;;;3.29;72.96;93886.59;523960;28;823;-64
2024/01/25 00:14:34;;;;;;;11.95;8.50;;;;;;;3.24;73.04;93881.91;524076;28;918;-64
2024/01/25 00:14:49;;;;;;;12.57;8.90;;;;;;;3.17;73.13;93884.34;524041;28;814;-64
2024/01/25 00:15:05;;;;;;;11.97;9.00;;;;;;;3.16;73.61;93891.03;524045;28;744;-64
2024/01/25 00:15:20;;;;;;;11.18;9.25;;;;;;;3.10;74.46;93880.09;523926;28;819;-63
2024/01/25 00:15:36;;;;;;;11.13;8.70;;;;;;;3.07;74.28;93878.38;523932;28;817;-64
2024/01/25 00:15:52;;;;;;;12.48;8.48;;;;;;;3.00;74.07;93878.81;523951;28;810;-64
2024/01/25 00:16:07;;;;;;;14.20;9.30;;;;;;;2.98;74.27;93875.84;523687;28;1140;-64
2024/01/25 00:16:23;;;;;;;12.73;8.95;;;;;;;3.02;74.00;93879.06;524030;28;804;-64
2024/01/25 00:16:42;;;;;;;11.53;8.77;;;;;;;2.96;74.10;93876.34;524050;28;815;-64
2024/01/25 00:16:57;;;;;;;11.45;8.35;;;;;;;2.91;74.33;93877.06;523813;28;1967;-64
2024/01/25 00:17:12;;;;;;;10.47;8.53;;;;;;;2.90;74.05;93872.81;524027;28;809;-64
2024/01/25 00:17:28;;;;;;;10.70;9.20;;;;;;;2.92;74.15;93870.34;524016;28;868;-64
2024/01/25 00:17:43;;;;;;;11.27;9.37;;;;;;;2.97;74.56;93866.16;524053;28;839;-64
2024/01/25 00:17:59;;;;;;;11.88;9.70;;;;;;;3.01;73.80;93866.69;523975;28;824;-64
2024/01/25 00:18:14;;;;;;;13.80;10.10;;;;;;;2.87;73.93;93840.34;524022;28;756;-64
2024/01/25 00:18:30;;;;;;;15.47;10.87;;;;;;;3.10;73.89;93865.72;524059;28;788;-64
2024/01/25 00:18:45;;;;;;;13.27;10.45;;;;;;;3.11;74.10;93862.50;524078;28;808;-64
2024/01/25 00:19:00;;;;;;;12.67;10.27;;;;;;;3.12;74.08;93866.72;524049;28;902;-64
2024/01/25 00:19:16;;;;;;;13.15;9.90;;;;;;;3.14;73.83;93863.50;524024;28;804;-64
2024/01/25 00:19:34;;;;;;;12.73;9.47;;;;;;;3.18;74.14;93870.22;524118;28;744;-64
2024/01/25 00:19:49;;;;;;;12.65;9.23;;;;;;;3.20;73.14;93864.28;523983;28;843;-64
2024/01/25 00:20:05;;;;;;;12.40;9.10;;;;;;;3.22;73.52;93864.53;524082;28;827;-64
2024/01/25 00:20:21;;;;;;;11.75;9.35;;;;;;;3.26;73.32;93865.03;523935;28;897;-64
2024/01/25 00:20:36;;;;;;;11.38;9.27;;;;;;;3.17;73.26;93860.53;524046;28;882;-64
2024/01/25 00:20:52;;;;;;;12.83;9.57;;;;;;;3.30;73.35;93871.00;524045;28;776;-64
2024/01/25 00:21:07;;;;;;;13.57;10.07;;;;;;;3.31;73.43;93864.31;523931;28;784;-64
2024/01/25 00:21:22;;;;;;;14.47;10.30;;;;;;;3.28;73.82;93871.50;524005;28;922;-64
2024/01/25 00:21:44;;;;;;;15.55;11.32;;;;;;;3.23;73.13;93863.31;524029;28;752;-64
2024/01/25 00:21:59;;;;;;;15.27;12.00;;;;;;;3.20;73.46;93867.00;524045;28;812;-64
2024/01/25 00:22:15;;;;;;;15.50;11.02;;;;;;;3.17;72.89;93863.25;523910;28;1085;-64
2024/01/25 00:22:31;;;;;;;13.85;9.93;;;;;;;3.10;73.24;93863.72;524053;28;868;-64
2024/01/25 00:22:46;;;;;;;12.27;9.70;;;;;;;3.04;73.60;93866.44;524006;28;848;-64
2024/01/25 00:23:02;;;;;;;11.93;9.07;;;;;;;3.02;73.30;93860.75;524054;28;756;-64
2024/01/25 00:23:17;;;;;;;11.07;8.83;;;;;;;3.01;73.63;93861.97;524000;28;760;-64
2024/01/25 00:23:33;;;;;;;11.00;9.00;;;;;;;2.96;73.74;93864.69;524026;28;807;-64
2024/01/25 00:23:48;;;;;;;11.87;9.03;;;;;;;2.94;74.21;93867.91;523944;28;783;-64
2024/01/25 00:24:04;;;;;;;11.60;8.82;;;;;;;2.95;74.20;93863.91;523981;28;875;-64
2024/01/25 00:24:19;;;;;;;12.43;9.10;;;;;;;2.97;73.88;93869.63;524017;28;832;-64
2024/01/25 00:24:36;;;;;;;12.45;9.05;;;;;;;3.01;73.74;93866.69;524053;28;748;-63
2024/01/25 00:24:52;;;;;;;12.77;9.25;;;;;;;3.03;74.09;93861.50;524080;28;1075;-64
2024/01/25 00:25:07;;;;;;;12.77;9.37;;;;;;;3.06;73.78;93863.22;523992;28;860;-64
2024/01/25 00:25:23;;;;;;;12.43;9.35;;;;;;;3.08;74.01;93866.97;523874;28;867;-64
2024/01/25 00:25:38;;;;;;;12.30;9.43;;;;;;;3.10;74.35;93868.47;523994;28;835;-64
2024/01/25 00:25:57;;;;;;;11.90;9.63;;;;;;;3.09;73.76;93867.72;524052;28;784;-63
2024/01/25 00:26:13;;;;;;;11.80;8.98;;;;;;;3.10;73.90;93866.47;523912;28;917;-64
2024/01/25 00:26:28;;;;;;;10.90;8.33;;;;;;;3.13;74.04;93862.00;524018;28;854;-64
2024/01/25 00:26:44;;;;;;;10.77;8.43;;;;;;;3.11;73.74;93857.06;523959;28;761;-64
2024/01/25 00:26:59;;;;;;;11.93;8.70;;;;;;;3.17;73.99;93865.25;524013;28;752;-64
2024/01/25 00:27:15;;;;;;;12.88;8.60;;;;;;;3.19;73.06;93862.75;523960;28;922;-64
2024/01/25 00:27:30;;;;;;;13.40;9.40;;;;;;;3.22;73.68;93872.72;524080;28;815;-64
2024/01/25 00:27:47;;;;;;;12.93;9.93;;;;;;;3.24;74.16;93864.78;524011;28;816;-64
2024/01/25 00:28:03;;;;;;;12.85;9.73;;;;;;;3.26;74.08;93859.56;524022;28;969;-64
2024/01/25 00:28:19;;;;;;;13.10;9.40;;;;;;;3.29;73.69;93855.88;523951;28;871;-64
2024/01/25 00:28:34;;;;;;;12.55;9.18;;;;;;;3.27;73.35;93858.34;524023;28;1043;-64
2024/01/25 00:28:50;;;;;;;11.52;8.63;;;;;;;3.26;73.53;93851.38;524043;28;776;-64
2024/01/25 00:29:05;;;;;;;10.90;8.27;;;;;;;3.17;73.73;93840.69;523985;28;764;-64
2024/01/25 00:29:21;;;;;;;11.32;9.02;;;;;;;3.27;73.69;93855.63;523995;28;824;-64
2024/01/25 00:29:36;;;;;;;12.93;9.10;;;;;;;3.29;73.51;93864.06;523997;28;863;-64
2024/01/25 00:29:52;;;;;;;13.75;9.07;;;;;;;3.30;73.95;93857.34;524060;28;918;-64
2024/01/25 00:30:08;;;;;;;13.47;9.43;;;;;;;3.33;73.71;93856.38;523933;28;783;-64
2024/01/25 00:30:23;;;;;;;13.02;9.63;;;;;;;3.34;73.77;93855.13;523982;28;820;-64
2024/01/25 00:30:39;;;;;;;11.50;9.52;;;;;;;3.36;73.39;93855.38;524030;28;836;-64
2024/01/25 00:30:55;;;;;;;10.75;9.02;;;;;;;3.35;73.62;93849.19;523894;28;836;-64
2024/01/25 00:31:10;;;;;;;12.07;9.30;;;;;;;3.36;73.59;93847.19;524049;28;789;-64
2024/01/25 00:31:27;;;;;;;12.45;9.43;;;;;;;3.29;74.40;93848.41;523985;28;847;-64
2024/01/25 00:31:42;;;;;;;13.57;9.45;;;;;;;3.20;73.82;93845.16;524081;28;820;-64
2024/01/25 00:31:58;;;;;;;13.35;9.20;;;;;;;3.07;74.63;93846.34;524005;28;869;-64
2024/01/25 00:32:13;;;;;;;12.13;9.20;;;;;;;2.99;74.36;93848.06;523918;28;769;-64
2024/01/25 00:32:29;;;;;;;12.98;9.75;;;;;;;2.94;74.02;93845.31;524024;28;910;-64
2024/01/25 00:32:44;;;;;;;14.27;9.60;;;;;;;2.95;74.23;93844.84;524042;28;807;-64
2024/01/25 00:33:01;;;;;;;14.40;9.18;;;;;;;2.99;74.94;93848.06;523939;28;796;-64
2024/01/25 00:33:16;;;;;;;13.38;9.20;;;;;;;3.01;74.77;93840.13;523985;28;811;-64
2024/01/25 00:33:32;;;;;;;12.18;8.95;;;;;;;3.06;74.85;93844.13;523958;28;867;-64
2024/01/25 00:33:47;;;;;;;11.67;9.20;;;;;;;3.09;74.99;93851.34;523993;28;816;-64
2024/01/25 00:34:03;;;;;;;12.00;9.55;;;;;;;3.13;74.44;93849.13;524008;28;788;-64
2024/01/25 00:34:19;;;;;;;12.00;9.27;;;;;;;3.16;74.53;93855.56;523960;28;793;-64
2024/01/25 00:34:35;;;;;;;12.43;9.40;;;;;;;3.18;74.46;93845.66;524051;28;777;-64
2024/01/25 00:34:50;;;;;;;16.90;9.32;;;;;;;3.20;74.56;93856.09;523974;28;843;-64
2024/01/25 00:35:07;;;;;;;16.80;9.10;;;;;;;3.21;74.55;93857.56;523929;28;784;-64
2024/01/25 00:35:23;;;;;;;13.82;9.35;;;;;;;3.22;74.09;93846.19;524024;28;886;-64
2024/01/25 00:35:39;;;;;;;13.25;9.38;;;;;;;3.22;73.98;93843.44;523975;28;883;-64
2024/01/25 00:35:55;;;;;;;13.63;9.27;;;;;;;3.18;74.27;93842.19;524020;28;867;-64
2024/01/25 00:36:11;;;;;;;12.77;9.27;;;;;;;3.15;73.91;93834.97;524003;28;780;-64
2024/01/25 00:36:27;;;;;;;12.20;9.77;;;;;;;2.91;74.19;93795.25;523886;28;846;-63
2024/01/25 00:36:42;;;;;;;14.27;9.87;;;;;;;3.07;73.65;93821.81;524040;28;744;-64
2024/01/25 00:36:58;;;;;;;16.42;10.40;;;;;;;3.06;73.60;93817.59;523919;28;1967;-64
2024/01/25 00:37:14;;;;;;;14.93;10.90;;;;;;;3.06;73.82;93817.59;523994;28;760;-64
2024/01/25 00:37:29;;;;;;;13.33;11.07;;;;;;;3.05;73.47;93813.38;524010;28;804;-64
2024/01/25 00:37:45;;;;;;;14.48;11.55;;;;;;;3.07;73.66;93812.91;523953;28;848;-64
2024/01/25 00:38:01;;;;;;;15.10;11.60;;;;;;;3.06;73.80;93817.59;523942;28;764;-64
2024/01/25 00:38:17;;;;;;;14.33;11.37;;;;;;;3.08;73.79;93806.19;523973;28;824;-64
2024/01/25 00:38:32;;;;;;;14.18;11.55;;;;;;;3.09;73.41;93799.50;524073;28;804;-64
2024/01/25 00:38:48;;;;;;;15.65;12.10;;;;;;;3.12;73.39;93800.50;524055;28;757;-64
2024/01/25 00:39:04;;;;;;;15.75;12.23;;;;;;;3.11;73.35;93801.75;523990;28;906;-64
2024/01/25 00:39:20;;;;;;;15.55;11.93;;;;;;;3.05;74.18;93807.91;523965;28;780;-63
2024/01/25 00:39:36;;;;;;;14.57;11.30;;;;;;;2.97;73.73;93815.09;524004;28;768;-64
2024/01/25 00:39:51;;;;;;;12.82;10.77;;;;;;;2.88;74.33;93815.28;524029;28;764;-63
2024/01/25 00:40:08;;;;;;;14.40;11.15;;;;;;;2.61;74.61;93791.41;523955;28;840;-64
2024/01/25 00:40:23;;;;;;;17.25;11.90;;;;;;;2.76;74.69;93821.19;523999;28;884;-64
2024/01/25 00:40:39;;;;;;;21.80;12.77;;;;;;;2.71;75.12;93822.66;523855;28;863;-64
2024/01/25 00:40:55;;;;;;;21.20;12.52;;;;;;;2.68;75.06;93823.66;523987;28;764;-64
2024/01/25 00:41:16;;;;;;;15.02;11.18;;;;;;;2.65;75.36;93832.78;523980;28;795;-64
2024/01/25 00:41:32;;;;;;;12.70;10.57;;;;;;;2.42;76.00;93800.47;524026;28;879;-64
2024/01/25 00:41:51;;;;;;;11.15;9.40;;;;;;;2.54;75.98;93824.56;523941;28;860;-64
2024/01/25 00:42:06;;;;;;;11.93;9.77;;;;;;;2.51;75.88;93828.28;524000;28;871;-64
2024/01/25 00:42:23;;;;;;;13.23;10.15;;;;;;;2.50;75.90;93824.06;524067;28;847;-64
2024/01/25 00:42:42;;;;;;;13.73;10.40;;;;;;;2.45;76.90;93824.03;523916;28;867;-64
2024/01/25 00:42:58;;;;;;;12.95;9.82;;;;;;;2.46;76.49;93826.25;523845;28;1383;-64
2024/01/25 00:43:14;;;;;;;13.23;10.00;;;;;;;2.47;76.56;93822.28;523848;28;816;-64
2024/01/25 00:43:30;;;;;;;13.20;10.57;;;;;;;2.45;76.80;93824.75;524022;28;839;-64
2024/01/25 00:43:45;;;;;;;12.57;9.77;;;;;;;2.41;76.18;93824.25;524011;28;796;-64
2024/01/25 00:44:01;;;;;;;12.35;9.50;;;;;;;2.41;76.31;93820.75;524044;28;828;-63
2024/01/25 00:44:17;;;;;;;14.15;9.68;;;;;;;2.34;76.26;93816.50;523881;28;1566;-64
2024/01/25 00:44:33;;;;;;;14.25;9.65;;;;;;;2.36;76.22;93816.78;524000;28;1049;-64
2024/01/25 00:44:49;;;;;;;12.98;9.57;;;;;;;2.35;76.44;93823.47;523881;28;808;-64
2024/01/25 00:45:05;;;;;;;12.73;9.35;;;;;;;2.40;76.79;93822.75;524024;28;815;-64
2024/01/25 00:45:22;;;;;;;13.55;9.02;;;;;;;2.42;76.16;93825.00;523962;28;867;-64
2024/01/25 00:45:38;;;;;;;14.15;9.07;;;;;;;2.38;76.49;93817.06;523871;28;803;-64
2024/01/25 00:45:53;;;;;;;11.60;8.80;;;;;;;2.39;76.34;93829.44;523995;28;772;-64
2024/01/25 00:46:09;;;;;;;12.13;9.40;;;;;;;2.41;76.26;93821.50;523914;28;848;-64
2024/01/25 00:46:25;;;;;;;14.18;9.52;;;;;;;2.41;75.99;93820.75;524001;28;899;-64
2024/01/25 00:46:41;;;;;;;13.60;9.38;;;;;;;2.38;76.21;93819.78;524003;28;864;-64
2024/01/25 00:46:57;;;;;;;14.38;9.98;;;;;;;2.39;75.92;93826.72;524024;28;799;-64
2024/01/25 00:47:13;;;;;;;16.43;10.50;;;;;;;2.38;76.39;93825.22;523949;28;760;-64
2024/01/25 00:47:28;;;;;;;15.43;10.20;;;;;;;2.40;76.05;93830.94;523906;28;745;-64
2024/01/25 00:47:44;;;;;;;13.02;9.60;;;;;;;2.42;76.81;93838.63;524012;28;864;-64
2024/01/25 00:48:00;;;;;;;12.98;9.82;;;;;;;2.44;76.51;93831.44;523939;28;776;-64
2024/01/25 00:48:16;;;;;;;12.48;9.70;;;;;;;2.46;76.51;93839.88;523954;28;850;-64
2024/01/25 00:48:31;;;;;;;11.73;9.33;;;;;;;2.44;76.71;93834.19;524015;28;843;-64
2024/01/25 00:48:47;;;;;;;11.55;9.50;;;;;;;2.43;76.67;93832.66;523947;28;824;-64
2024/01/25 00:49:03;;;;;;;10.90;9.50;;;;;;;2.41;76.99;93835.13;523956;28;839;-64
2024/01/25 00:49:19;;;;;;;13.25;9.88;;;;;;;2.37;76.92;93826.44;523900;28;773;-64
2024/01/25 00:49:35;;;;;;;14.48;10.35;;;;;;;2.35;76.91;93831.63;524002;28;820;-64
2024/01/25 00:49:51;;;;;;;13.70;10.50;;;;;;;2.32;77.20;93823.72;523977;28;832;-64
2024/01/25 00:50:07;;;;;;;14.37;10.80;;;;;;;2.37;76.95;93848.25;523902;28;800;-64
2024/01/25 00:50:23;;;;;;;16.35;10.65;;;;;;;2.37;77.09;93836.59;523957;28;843;-64
2024/01/25 00:50:39;;;;;;;15.05;10.25;;;;;;;2.38;77.15;93844.31;523867;28;852;-64
2024/01/25 00:50:55;;;;;;;13.48;10.88;;;;;;;2.38;77.18;93840.81;523951;28;814;-64
2024/01/25 00:51:20;;;;;;;14.43;11.23;;;;;;;2.36;77.01;93843.28;523971;28;811;-63
2024/01/25 00:51:36;;;;;;;14.73;10.85;;;;;;;2.34;77.47;93848.47;523876;28;927;-64
2024/01/25 00:51:58;;;;;;;14.48;10.77;;;;;;;2.28;77.96;93835.56;523915;28;913;-64
2024/01/25 00:52:14;;;;;;;13.52;10.40;;;;;;;2.25;77.99;93836.53;523963;28;901;-64
2024/01/25 00:52:30;;;;;;;11.95;10.35;;;;;;;2.18;77.56;93836.25;523991;28;772;-64
2024/01/25 00:52:45;;;;;;;12.97;10.20;;;;;;;2.08;77.97;93843.13;523919;28;765;-63
2024/01/25 00:53:01;;;;;;;14.00;10.52;;;;;;;2.05;77.83;93838.63;523926;28;799;-64
2024/01/25 00:53:17;;;;;;;14.32;10.27;;;;;;;2.06;77.71;93840.84;523955;28;820;-64
2024/01/25 00:53:33;;;;;;;16.27;10.50;;;;;;;2.01;78.31;93847.03;523957;28;915;-64
2024/01/25 00:53:49;;;;;;;15.32;11.00;;;;;;;1.93;78.57;93828.88;523882;28;787;-64
2024/01/25 00:54:04;;;;;;;12.77;10.40;;;;;;;2.07;77.90;93847.06;523999;28;844;-64
2024/01/25 00:54:20;;;;;;;12.65;9.65;;;;;;;2.10;78.06;93846.09;523879;28;772;-64
2024/01/25 00:54:36;;;;;;;13.50;9.70;;;;;;;2.15;77.94;93848.09;523979;28;859;-64
2024/01/25 00:54:52;;;;;;;13.13;9.55;;;;;;;2.20;77.84;93850.13;523943;28;836;-64
2024/01/25 00:55:08;;;;;;;13.07;9.60;;;;;;;2.21;77.38;93841.44;523869;28;914;-64
2024/01/25 00:55:24;;;;;;;13.77;9.48;;;;;;;2.26;77.54;93840.00;524019;28;891;-64
2024/01/25 00:55:41;;;;;;;15.23;10.10;;;;;;;2.28;77.36;93829.38;523833;28;807;-64
2024/01/25 00:55:57;;;;;;;12.95;10.63;;;;;;;2.27;77.81;93836.78;523920;28;838;-64
2024/01/25 00:56:12;;;;;;;12.73;10.57;;;;;;;2.25;77.22;93841.25;523987;28;747;-64
2024/01/25 00:56:28;;;;;;;12.43;9.98;;;;;;;2.21;77.84;93841.44;523907;28;785;-64
2024/01/25 00:56:44;;;;;;;14.00;10.13;;;;;;;2.25;77.61;93836.53;524042;28;784;-64
2024/01/25 00:57:00;;;;;;;14.32;11.10;;;;;;;2.26;77.63;93834.56;523785;28;1973;-64
2024/01/25 00:57:16;;;;;;;13.93;11.05;;;;;;;2.29;77.24;93825.41;523897;28;831;-63
2024/01/25 00:57:31;;;;;;;14.13;10.80;;;;;;;2.31;77.56;93822.94;523992;28;783;-64
2024/01/25 00:57:47;;;;;;;12.82;10.18;;;;;;;2.35;77.38;93823.47;523944;28;788;-64
2024/01/25 00:58:03;;;;;;;12.75;9.93;;;;;;;2.38;77.10;93825.22;523941;28;804;-64
2024/01/25 00:58:19;;;;;;;13.07;10.18;;;;;;;2.38;77.01;93833.41;523982;28;859;-64
2024/01/25 00:58:35;;;;;;;13.30;10.57;;;;;;;2.33;77.08;93825.19;523832;28;1079;-64
2024/01/25 00:58:50;;;;;;;14.10;11.23;;;;;;;2.32;77.37;93824.44;523925;28;772;-64
2024/01/25 00:59:06;;;;;;;15.47;11.30;;;;;;;2.34;76.74;93832.88;523950;28;855;-64
2024/01/25 00:59:22;;;;;;;15.13;10.60;;;;;;;2.37;77.32;93822.97;523921;28;907;-64
2024/01/25 00:59:38;;;;;;;14.00;10.20;;;;;;;2.20;77.30;93792.91;523872;28;923;-64
2024/01/25 00:59:53;;;;;;;13.37;10.50;;;;;;;2.41;77.11;93816.06;523839;28;836;-64
2024/01/25 01:00:09;;;;;;;14.97;10.80;;;;;;;2.44;76.73;93817.81;523886;28;904;-64
2024/01/25 01:00:25;;;;;;;14.77;10.75;;;;;;;2.44;76.62;93822.53;524005;28;1158;-64
2024/01/25 01:00:41;;;;;;;14.20;10.27;;;;;;;2.45;76.61;93815.84;523785;28;923;-64
2024/01/25 01:00:57;;;;;;;13.68;9.85;;;;;;;2.43;76.72;93819.06;523892;28;808;-64
2024/01/25 01:01:13;;;;;;;14.52;10.27;;;;;;;2.42;76.24;93827.72;523888;28;847;-64
2024/01/25 01:01:28;;;;;;;15.77;11.00;;;;;;;2.41;76.32;93816.06;523859;28;828;-64
2024/01/25 01:01:46;;;;;;;14.35;10.75;;;;;;;2.43;76.20;93827.22;523962;28;797;-64
2024/01/25 01:02:04;;;;;;;13.73;10.43;;;;;;;2.43;75.91;93821.03;523929;28;811;-64
2024/01/25 01:02:21;;;;;;;13.55;10.73;;;;;;;2.40;76.10;93814.59;523744;28;832;-64
2024/01/25 01:02:42;;;;;;;16.55;11.13;;;;;;;2.41;76.13;93818.03;523749;28;1042;-64
2024/01/25 01:03:00;;;;;;;14.70;10.57;;;;;;;2.43;76.08;93819.06;523718;28;888;-64
2024/01/25 01:03:18;;;;;;;13.80;10.57;;;;;;;2.45;75.71;93807.69;521741;28;887;-64
2024/01/25 01:03:34;;;;;;;13.85;10.80;;;;;;;2.43;75.39;93812.84;521705;28;943;-64
2024/01/25 01:03:52;;;;;;;14.25;10.48;;;;;;;2.38;75.10;93814.34;521631;28;1176;-64
2024/01/25 01:04:08;;;;;;;13.55;9.98;;;;;;;2.34;75.04;93826.69;521878;28;1185;-64
2024/01/25 01:04:24;;;;;;;13.63;9.82;;;;;;;2.16;74.99;93806.78;523835;28;859;-64
2024/01/25 01:04:40;;;;;;;13.85;9.77;;;;;;;2.23;75.32;93828.09;524314;28;1310;-64
2024/01/25 01:04:58;;;;;;;13.68;9.98;;;;;;;2.13;75.81;93831.50;525892;28;902;-64
2024/01/25 01:05:14;;;;;;;15.23;10.40;;;;;;;2.04;76.40;93824.25;525834;28;1090;-64
2024/01/25 01:05:30;;;;;;;14.32;10.07;;;;;;;2.03;76.50;93824.75;525741;28;1128;-64
2024/01/25 01:05:45;;;;;;;13.35;9.95;;;;;;;2.04;76.76;93818.06;525937;28;784;-63
2024/01/25 01:06:01;;;;;;;12.20;9.97;;;;;;;2.08;76.98;93810.44;526022;28;736;-64
2024/01/25 01:06:17;;;;;;;13.70;10.32;;;;;;;2.12;77.21;93816.41;525994;28;780;-64
2024/01/25 01:06:33;;;;;;;16.10;10.50;;;;;;;2.06;76.55;93796.53;526085;28;788;-64
2024/01/25 01:06:48;;;;;;;14.48;10.25;;;;;;;2.11;76.87;93817.63;525944;28;780;-64
2024/01/25 01:07:04;;;;;;;13.90;10.30;;;;;;;1.90;76.51;93778.13;525980;28;807;-64
2024/01/25 01:07:20;;;;;;;15.25;10.52;;;;;;;2.10;76.63;93813.41;525982;28;815;-64
2024/01/25 01:07:36;;;;;;;14.80;11.07;;;;;;;2.10;76.26;93818.84;526081;28;788;-64
2024/01/25 01:07:52;;;;;;;13.13;10.82;;;;;;;2.10;76.99;93816.84;526019;28;749;-64
2024/01/25 01:08:08;;;;;;;14.95;10.80;;;;;;;2.11;76.27;93814.91;525960;28;737;-64
2024/01/25 01:08:26;;;;;;;14.38;10.68;;;;;;;2.04;76.51;93816.09;526000;28;855;-64
2024/01/25 01:08:42;;;;;;;14.02;10.65;;;;;;;2.07;76.45;93814.38;526116;28;796;-64
2024/01/25 01:08:59;;;;;;;15.13;10.52;;;;;;;2.09;76.99;93806.47;525965;28;753;-64
2024/01/25 01:09:14;;;;;;;15.23;10.80;;;;;;;2.12;76.60;93805.50;525951;28;903;-64
2024/01/25 01:09:30;;;;;;;14.63;10.90;;;;;;;2.14;76.25;93809.22;526014;28;768;-64
2024/01/25 01:09:45;;;;;;;13.73;10.23;;;;;;;2.14;76.24;93809.22;526013;28;740;-64
2024/01/25 01:10:01;;;;;;;13.93;9.80;;;;;;;2.15;76.11;93801.78;525956;28;809;-63
2024/01/25 01:10:16;;;;;;;14.75;10.73;;;;;;;2.12;76.22;93808.22;525988;28;791;-64
2024/01/25 01:10:32;;;;;;;14.30;11.07;;;;;;;2.10;76.72;93811.41;526067;28;792;-64
2024/01/25 01:10:47;;;;;;;13.75;11.18;;;;;;;2.03;76.59;93809.16;525931;28;1033;-64
2024/01/25 01:11:03;;;;;;;13.77;11.00;;;;;;;2.04;77.23;93818.06;525905;28;843;-64
2024/01/25 01:11:19;;;;;;;13.02;10.57;;;;;;;2.05;77.23;93814.13;526000;28;765;-64
2024/01/25 01:11:36;;;;;;;14.02;11.48;;;;;;;2.07;76.74;93804.22;526015;28;803;-64
2024/01/25 01:11:52;;;;;;;15.40;11.35;;;;;;;2.13;76.87;93796.09;525984;28;859;-63
2024/01/25 01:12:07;;;;;;;16.15;11.60;;;;;;;2.16;76.75;93795.88;525980;28;878;-64
2024/01/25 01:12:23;;;;;;;16.90;11.73;;;;;;;2.18;77.00;93787.97;526007;28;784;-64
2024/01/25 01:12:38;;;;;;;17.73;11.95;;;;;;;2.23;76.88;93789.22;525971;28;898;-63
2024/01/25 01:12:54;;;;;;;16.40;12.00;;;;;;;2.26;76.87;93793.69;526000;28;748;-64
2024/01/25 01:13:09;;;;;;;14.45;11.68;;;;;;;2.27;76.45;93795.91;526035;28;886;-64
2024/01/25 01:13:25;;;;;;;15.47;11.73;;;;;;;2.30;76.86;93800.41;526002;28;779;-64
2024/01/25 01:13:40;;;;;;;16.40;12.23;;;;;;;2.32;76.89;93799.19;525998;28;812;-64
2024/01/25 01:13:56;;;;;;;15.17;12.53;;;;;;;2.30;77.14;93802.38;525966;28;748;-64
2024/01/25 01:14:12;;;;;;;14.73;12.20;;;;;;;2.29;76.41;93798.94;525990;28;784;-64
2024/01/25 01:14:27;;;;;;;16.30;11.68;;;;;;;2.29;76.75;93804.38;525903;28;912;-64
2024/01/25 01:14:43;;;;;;;16.23;11.77;;;;;;;2.16;76.67;93776.06;526028;28;819;-64
2024/01/25 01:14:58;;;;;;;15.00;11.98;;;;;;;2.32;76.55;93799.91;525990;28;811;-64
2024/01/25 01:15:14;;;;;;;14.77;11.50;;;;;;;2.33;76.93;93793.25;525929;28;857;-64
2024/01/25 01:15:29;;;;;;;15.02;10.93;;;;;;;2.35;76.83;93798.94;526045;28;815;-64
2024/01/25 01:15:44;;;;;;;16.27;11.43;;;;;;;2.37;76.72;93799.22;525980;28;818;-64
2024/01/25 01:16:00;;;;;;;15.75;11.93;;;;;;;2.40;77.32;93797.50;525160;28;1108;-64
2024/01/25 01:16:16;;;;;;;15.00;12.13;;;;;;;2.43;77.00;93791.81;523890;28;741;-64
2024/01/25 01:16:33;;;;;;;16.58;12.27;;;;;;;2.46;76.47;93790.84;523881;28;1069;-64
2024/01/25 01:16:50;;;;;;;16.67;11.90;;;;;;;2.50;76.99;93794.06;523881;28;914;-64
2024/01/25 01:17:05;;;;;;;15.35;11.20;;;;;;;2.50;76.99;93794.06;523784;28;1914;-64
2024/01/25 01:17:21;;;;;;;14.55;10.88;;;;;;;2.49;77.13;93792.56;523903;28;835;-64